Airfield :







YOU CAN JOIN US ON...

 
LOGIN :

Register | Disclaimer

   EN    FR    IT 

 









Legend :    VFR   Marginal VFR   IFR   Intensive IFR   Very Intensive IFR
Visi :
Ceiling :
>= 8 km
>= 3000ft
5 to 8 km
1000 to 3000 ft
1500m to 5 km
500 to 1000 ft
800 to 1500m
200 to 500 ft
< 800m
< 200 ft
Symbols :   Thunderstorms  Fog  Heavy snow  Heavy precipitations  Wind > 20 kt






- Airport Elevation : 266 ft
- IATA code : MHT


KMHT - Manchester

CURRENT METAR :
  • 150653Z 24014G20KT 10SM FEW032 BKN085 06/00 A2919 RMK AO2 SLP901 T00610000

EXPIRED METARs :
  • 150632Z 23012G18KT 10SM SCT024 SCT032 BKN075 06/01 A2918 RMK AO2 T00610011
  • 150553Z 25011G22KT 10SM SCT020 BKN028 OVC045 08/03 A2915 RMK AO2 RAB30E41 SLP885 P0000 60001 T00830028 10100 20067 53024
  • 150500Z 21007KT 10SM BKN025 OVC030 09/07 A2909 RMK AO2 T00940067
  • 150453Z 21009G17KT 10SM BKN030 09/07 A2909 RMK AO2 SLP865 T00940067 401000017

TAF KMHT
Valid from the 15 at 06:00 until the 16 at 06:00 UTC


150522Z 1506/1606 22010KT P6SM BKN025
FM151000 24012G21KT P6SM BKN040
FM151500 26016G25KT P6SM BKN050
FM152100 27016G25KT P6SM FEW250
FM160400 28013G22KT P6SM SKC



MET'MAP, your aeronautical weather chart ! - Copyright ORBIFLY December 2007 - Disclaimer

ORBIFLY MET'MAP TEAM :

Programming & Development : Alexandra Zaïnal
Concept & original design : Baudouin d'Aumeries
Assistance for programming : Marc-Olivier Méhu
Technical & hardware support : Manuel Goepfert

Contact : metmap@orbifly.com




SOURCES & CREDITS :

   NOAA